sensor_id;sensor_type;location;lat;lon;timestamp;pressure;altitude;pressure_sealevel;temperature
9119;BMP180;4594;50.994;7.126;2023-03-01T00:01:30;101949.00;;;3.20
9119;BMP180;4594;50.994;7.126;2023-03-01T00:03:58;101944.00;;;3.20
9119;BMP180;4594;50.994;7.126;2023-03-01T00:06:24;101951.00;;;3.20
9119;BMP180;4594;50.994;7.126;2023-03-01T00:08:50;101957.00;;;3.10
9119;BMP180;4594;50.994;7.126;2023-03-01T00:11:27;101958.00;;;3.10
9119;BMP180;4594;50.994;7.126;2023-03-01T00:13:56;101960.00;;;3.10
9119;BMP180;4594;50.994;7.126;2023-03-01T00:16:27;101953.00;;;3.10
9119;BMP180;4594;50.994;7.126;2023-03-01T00:18:55;101950.00;;;3.00
9119;BMP180;4594;50.994;7.126;2023-03-01T00:21:21;101940.00;;;3.00
9119;BMP180;4594;50.994;7.126;2023-03-01T00:23:48;101933.00;;;3.00
9119;BMP180;4594;50.994;7.126;2023-03-01T00:26:15;101949.00;;;3.00
9119;BMP180;4594;50.994;7.126;2023-03-01T00:28:42;101926.00;;;3.00
9119;BMP180;4594;50.994;7.126;2023-03-01T00:31:19;101947.00;;;2.90
9119;BMP180;4594;50.994;7.126;2023-03-01T00:33:45;101943.00;;;2.90
9119;BMP180;4594;50.994;7.126;2023-03-01T00:36:14;101919.00;;;2.90
9119;BMP180;4594;50.994;7.126;2023-03-01T00:38:44;101925.00;;;2.90
9119;BMP180;4594;50.994;7.126;2023-03-01T00:41:14;101931.00;;;2.80
9119;BMP180;4594;50.994;7.126;2023-03-01T00:43:40;101939.00;;;2.80
9119;BMP180;4594;50.994;7.126;2023-03-01T00:46:16;101942.00;;;2.80
9119;BMP180;4594;50.994;7.126;2023-03-01T00:48:42;101940.00;;;2.70
9119;BMP180;4594;50.994;7.126;2023-03-01T00:51:18;101923.00;;;2.70
9119;BMP180;4594;50.994;7.126;2023-03-01T00:53:44;101922.00;;;2.70
9119;BMP180;4594;50.994;7.126;2023-03-01T00:56:13;101931.00;;;2.70
9119;BMP180;4594;50.994;7.126;2023-03-01T00:58:40;101930.00;;;2.60
9119;BMP180;4594;50.994;7.126;2023-03-01T01:01:17;101931.00;;;2.60
9119;BMP180;4594;50.994;7.126;2023-03-01T01:03:46;101928.00;;;2.60
9119;BMP180;4594;50.994;7.126;2023-03-01T01:06:20;101928.00;;;2.50
9119;BMP180;4594;50.994;7.126;2023-03-01T01:08:47;101918.00;;;2.50
9119;BMP180;4594;50.994;7.126;2023-03-01T01:11:13;101912.00;;;2.50
9119;BMP180;4594;50.994;7.126;2023-03-01T01:13:40;101915.00;;;2.50
9119;BMP180;4594;50.994;7.126;2023-03-01T01:16:07;101910.00;;;2.40
9119;BMP180;4594;50.994;7.126;2023-03-01T01:18:33;101894.00;;;2.40
9119;BMP180;4594;50.994;7.126;2023-03-01T01:21:06;101912.00;;;2.40
9119;BMP180;4594;50.994;7.126;2023-03-01T01:23:32;101909.00;;;2.40
9119;BMP180;4594;50.994;7.126;2023-03-01T01:26:05;101900.00;;;2.40
9119;BMP180;4594;50.994;7.126;2023-03-01T01:28:31;101894.00;;;2.40
9119;BMP180;4594;50.994;7.126;2023-03-01T01:30:56;101892.00;;;2.30
9119;BMP180;4594;50.994;7.126;2023-03-01T01:33:22;101888.00;;;2.30
9119;BMP180;4594;50.994;7.126;2023-03-01T01:35:48;101893.00;;;2.30
9119;BMP180;4594;50.994;7.126;2023-03-01T01:38:13;101887.00;;;2.30
9119;BMP180;4594;50.994;7.126;2023-03-01T01:40:47;101886.00;;;2.20
9119;BMP180;4594;50.994;7.126;2023-03-01T01:43:24;101880.00;;;2.20
9119;BMP180;4594;50.994;7.126;2023-03-01T01:45:55;101861.00;;;2.20
9119;BMP180;4594;50.994;7.126;2023-03-01T01:48:28;101853.00;;;2.20
9119;BMP180;4594;50.994;7.126;2023-03-01T01:51:09;101864.00;;;2.20
9119;BMP180;4594;50.994;7.126;2023-03-01T01:53:38;101864.00;;;2.10
9119;BMP180;4594;50.994;7.126;2023-03-01T01:56:08;101838.00;;;2.10
9119;BMP180;4594;50.994;7.126;2023-03-01T01:58:36;101840.00;;;2.10
9119;BMP180;4594;50.994;7.126;2023-03-01T02:01:04;101852.00;;;2.10
9119;BMP180;4594;50.994;7.126;2023-03-01T02:03:34;101828.00;;;2.00
9119;BMP180;4594;50.994;7.126;2023-03-01T02:06:37;101841.00;;;2.00
9119;BMP180;4594;50.994;7.126;2023-03-01T02:09:14;101850.00;;;2.00
9119;BMP180;4594;50.994;7.126;2023-03-01T02:11:42;101841.00;;;2.00
9119;BMP180;4594;50.994;7.126;2023-03-01T02:14:09;101838.00;;;1.90
9119;BMP180;4594;50.994;7.126;2023-03-01T02:16:35;101823.00;;;1.90
9119;BMP180;4594;50.994;7.126;2023-03-01T02:19:03;101837.00;;;1.90
9119;BMP180;4594;50.994;7.126;2023-03-01T02:27:00;101836.00;;;1.90
9119;BMP180;4594;50.994;7.126;2023-03-01T02:29:28;101830.00;;;1.90
9119;BMP180;4594;50.994;7.126;2023-03-01T02:31:56;101830.00;;;2.00
9119;BMP180;4594;50.994;7.126;2023-03-01T02:34:24;101815.00;;;2.00
9119;BMP180;4594;50.994;7.126;2023-03-01T02:36:57;101836.00;;;2.00
9119;BMP180;4594;50.994;7.126;2023-03-01T02:39:46;101838.00;;;2.10
9119;BMP180;4594;50.994;7.126;2023-03-01T02:42:26;101832.00;;;2.10
9119;BMP180;4594;50.994;7.126;2023-03-01T02:44:55;101831.00;;;2.20
9119;BMP180;4594;50.994;7.126;2023-03-01T02:47:21;101825.00;;;2.20
9119;BMP180;4594;50.994;7.126;2023-03-01T02:49:47;101826.00;;;2.20
9119;BMP180;4594;50.994;7.126;2023-03-01T02:52:36;101827.00;;;2.30
9119;BMP180;4594;50.994;7.126;2023-03-01T02:55:09;101816.00;;;2.30
9119;BMP180;4594;50.994;7.126;2023-03-01T02:57:40;101824.00;;;2.30
9119;BMP180;4594;50.994;7.126;2023-03-01T03:00:13;101822.00;;;2.30
9119;BMP180;4594;50.994;7.126;2023-03-01T03:02:47;101814.00;;;2.30
9119;BMP180;4594;50.994;7.126;2023-03-01T03:05:18;101810.00;;;2.30
9119;BMP180;4594;50.994;7.126;2023-03-01T03:07:46;101805.00;;;2.30
9119;BMP180;4594;50.994;7.126;2023-03-01T03:10:20;101805.00;;;2.30
9119;BMP180;4594;50.994;7.126;2023-03-01T03:12:59;101798.00;;;2.30
9119;BMP180;4594;50.994;7.126;2023-03-01T03:15:27;101798.00;;;2.30
9119;BMP180;4594;50.994;7.126;2023-03-01T03:17:55;101811.00;;;2.30
9119;BMP180;4594;50.994;7.126;2023-03-01T03:20:26;101793.00;;;2.20
9119;BMP180;4594;50.994;7.126;2023-03-01T03:22:56;101787.00;;;2.30
9119;BMP180;4594;50.994;7.126;2023-03-01T03:25:22;101794.00;;;2.30
9119;BMP180;4594;50.994;7.126;2023-03-01T03:27:50;101786.00;;;2.40
9119;BMP180;4594;50.994;7.126;2023-03-01T03:30:24;101781.00;;;2.40
9119;BMP180;4594;50.994;7.126;2023-03-01T03:32:50;101768.00;;;2.40
9119;BMP180;4594;50.994;7.126;2023-03-01T03:35:33;101784.00;;;2.40
9119;BMP180;4594;50.994;7.126;2023-03-01T03:38:01;101796.00;;;2.40
9119;BMP180;4594;50.994;7.126;2023-03-01T03:40:41;101796.00;;;2.50
9119;BMP180;4594;50.994;7.126;2023-03-01T03:43:13;101787.00;;;2.50
9119;BMP180;4594;50.994;7.126;2023-03-01T03:45:39;101783.00;;;2.50
9119;BMP180;4594;50.994;7.126;2023-03-01T03:48:08;101787.00;;;2.60
9119;BMP180;4594;50.994;7.126;2023-03-01T03:50:35;101778.00;;;2.60
9119;BMP180;4594;50.994;7.126;2023-03-01T03:53:04;101787.00;;;2.60
9119;BMP180;4594;50.994;7.126;2023-03-01T03:55:30;101782.00;;;2.60
9119;BMP180;4594;50.994;7.126;2023-03-01T03:58:01;101782.00;;;2.60
9119;BMP180;4594;50.994;7.126;2023-03-01T04:00:28;101757.00;;;2.60
9119;BMP180;4594;50.994;7.126;2023-03-01T04:02:54;101768.00;;;2.60
9119;BMP180;4594;50.994;7.126;2023-03-01T04:05:22;101769.00;;;2.60
9119;BMP180;4594;50.994;7.126;2023-03-01T04:07:48;101742.00;;;2.60
9119;BMP180;4594;50.994;7.126;2023-03-01T04:10:17;101749.00;;;2.60
9119;BMP180;4594;50.994;7.126;2023-03-01T04:12:43;101753.00;;;2.70
9119;BMP180;4594;50.994;7.126;2023-03-01T04:15:11;101755.00;;;2.70
9119;BMP180;4594;50.994;7.126;2023-03-01T04:17:45;101760.00;;;2.70
9119;BMP180;4594;50.994;7.126;2023-03-01T04:20:16;101754.00;;;2.60
9119;BMP180;4594;50.994;7.126;2023-03-01T04:23:05;101758.00;;;2.60
9119;BMP180;4594;50.994;7.126;2023-03-01T04:25:58;101756.00;;;2.60
9119;BMP180;4594;50.994;7.126;2023-03-01T04:28:33;101753.00;;;2.60
9119;BMP180;4594;50.994;7.126;2023-03-01T04:31:12;101750.00;;;2.70
9119;BMP180;4594;50.994;7.126;2023-03-01T04:33:54;101752.00;;;2.70
9119;BMP180;4594;50.994;7.126;2023-03-01T04:36:25;101756.00;;;2.70
9119;BMP180;4594;50.994;7.126;2023-03-01T04:38:51;101755.00;;;2.70
9119;BMP180;4594;50.994;7.126;2023-03-01T04:41:20;101751.00;;;2.70
9119;BMP180;4594;50.994;7.126;2023-03-01T04:43:47;101752.00;;;2.70
9119;BMP180;4594;50.994;7.126;2023-03-01T04:46:18;101738.00;;;2.80
9119;BMP180;4594;50.994;7.126;2023-03-01T04:48:45;101748.00;;;2.70
9119;BMP180;4594;50.994;7.126;2023-03-01T04:51:12;101730.00;;;2.80
9119;BMP180;4594;50.994;7.126;2023-03-01T04:53:42;101746.00;;;2.80
9119;BMP180;4594;50.994;7.126;2023-03-01T04:56:09;101752.00;;;2.80
9119;BMP180;4594;50.994;7.126;2023-03-01T04:58:35;101747.00;;;2.80
9119;BMP180;4594;50.994;7.126;2023-03-01T05:01:01;101747.00;;;2.80
9119;BMP180;4594;50.994;7.126;2023-03-01T05:03:26;101746.00;;;2.80
9119;BMP180;4594;50.994;7.126;2023-03-01T05:05:53;101743.00;;;2.80
9119;BMP180;4594;50.994;7.126;2023-03-01T05:08:19;101724.00;;;2.80
9119;BMP180;4594;50.994;7.126;2023-03-01T05:10:50;101738.00;;;2.90
9119;BMP180;4594;50.994;7.126;2023-03-01T05:13:18;101740.00;;;2.90
9119;BMP180;4594;50.994;7.126;2023-03-01T05:15:59;101746.00;;;2.90
9119;BMP180;4594;50.994;7.126;2023-03-01T05:18:27;101745.00;;;2.90
9119;BMP180;4594;50.994;7.126;2023-03-01T05:21:06;101730.00;;;2.90
9119;BMP180;4594;50.994;7.126;2023-03-01T05:23:33;101746.00;;;2.90
9119;BMP180;4594;50.994;7.126;2023-03-01T05:26:02;101742.00;;;3.00
9119;BMP180;4594;50.994;7.126;2023-03-01T05:28:30;101724.00;;;3.00
9119;BMP180;4594;50.994;7.126;2023-03-01T05:30:57;101743.00;;;3.00
9119;BMP180;4594;50.994;7.126;2023-03-01T05:33:24;101745.00;;;3.00
9119;BMP180;4594;50.994;7.126;2023-03-01T05:35:51;101727.00;;;3.00
9119;BMP180;4594;50.994;7.126;2023-03-01T05:38:19;101747.00;;;3.00
9119;BMP180;4594;50.994;7.126;2023-03-01T05:40:47;101742.00;;;3.00
9119;BMP180;4594;50.994;7.126;2023-03-01T05:43:16;101739.00;;;3.10
9119;BMP180;4594;50.994;7.126;2023-03-01T05:45:43;101754.00;;;3.10
9119;BMP180;4594;50.994;7.126;2023-03-01T05:48:10;101746.00;;;3.10
9119;BMP180;4594;50.994;7.126;2023-03-01T05:50:41;101750.00;;;3.10
9119;BMP180;4594;50.994;7.126;2023-03-01T05:53:15;101747.00;;;3.10
9119;BMP180;4594;50.994;7.126;2023-03-01T05:55:43;101744.00;;;3.10
9119;BMP180;4594;50.994;7.126;2023-03-01T05:58:13;101746.00;;;3.10
9119;BMP180;4594;50.994;7.126;2023-03-01T06:00:44;101738.00;;;3.10
9119;BMP180;4594;50.994;7.126;2023-03-01T06:03:12;101731.00;;;3.10
9119;BMP180;4594;50.994;7.126;2023-03-01T06:05:40;101720.00;;;3.20
9119;BMP180;4594;50.994;7.126;2023-03-01T06:08:06;101722.00;;;3.20
9119;BMP180;4594;50.994;7.126;2023-03-01T06:10:32;101734.00;;;3.30
9119;BMP180;4594;50.994;7.126;2023-03-01T06:12:58;101727.00;;;3.30
9119;BMP180;4594;50.994;7.126;2023-03-01T06:15:25;101745.00;;;3.30
9119;BMP180;4594;50.994;7.126;2023-03-01T06:17:52;101747.00;;;3.40
9119;BMP180;4594;50.994;7.126;2023-03-01T06:20:24;101732.00;;;3.40
9119;BMP180;4594;50.994;7.126;2023-03-01T06:22:50;101734.00;;;3.50
9119;BMP180;4594;50.994;7.126;2023-03-01T06:25:19;101747.00;;;3.50
9119;BMP180;4594;50.994;7.126;2023-03-01T06:27:46;101739.00;;;3.60
9119;BMP180;4594;50.994;7.126;2023-03-01T06:30:15;101754.00;;;3.60
9119;BMP180;4594;50.994;7.126;2023-03-01T06:32:41;101739.00;;;3.60
9119;BMP180;4594;50.994;7.126;2023-03-01T06:35:15;101731.00;;;3.70
9119;BMP180;4594;50.994;7.126;2023-03-01T06:37:44;101748.00;;;3.70
9119;BMP180;4594;50.994;7.126;2023-03-01T06:40:11;101736.00;;;3.70
9119;BMP180;4594;50.994;7.126;2023-03-01T06:42:39;101728.00;;;3.70
9119;BMP180;4594;50.994;7.126;2023-03-01T06:45:07;101737.00;;;3.80
9119;BMP180;4594;50.994;7.126;2023-03-01T06:47:33;101726.00;;;3.90
9119;BMP180;4594;50.994;7.126;2023-03-01T06:50:03;101726.00;;;4.10
9119;BMP180;4594;50.994;7.126;2023-03-01T06:52:29;101729.00;;;4.30
9119;BMP180;4594;50.994;7.126;2023-03-01T06:54:55;101732.00;;;4.70
9119;BMP180;4594;50.994;7.126;2023-03-01T06:57:20;101732.00;;;5.00
9119;BMP180;4594;50.994;7.126;2023-03-01T06:59:47;101741.00;;;5.40
9119;BMP180;4594;50.994;7.126;2023-03-01T07:02:14;101741.00;;;5.70
9119;BMP180;4594;50.994;7.126;2023-03-01T07:04:41;101743.00;;;6.10
9119;BMP180;4594;50.994;7.126;2023-03-01T07:07:07;101729.00;;;6.40
9119;BMP180;4594;50.994;7.126;2023-03-01T07:09:33;101731.00;;;6.70
9119;BMP180;4594;50.994;7.126;2023-03-01T07:11:59;101733.00;;;7.10
9119;BMP180;4594;50.994;7.126;2023-03-01T07:14:25;101737.00;;;7.50
9119;BMP180;4594;50.994;7.126;2023-03-01T07:16:52;101718.00;;;7.80
9119;BMP180;4594;50.994;7.126;2023-03-01T07:19:18;101735.00;;;8.10
9119;BMP180;4594;50.994;7.126;2023-03-01T07:21:44;101725.00;;;8.30
9119;BMP180;4594;50.994;7.126;2023-03-01T07:24:10;101726.00;;;8.60
9119;BMP180;4594;50.994;7.126;2023-03-01T07:26:36;101726.00;;;9.00
9119;BMP180;4594;50.994;7.126;2023-03-01T07:29:07;101733.00;;;9.40
9119;BMP180;4594;50.994;7.126;2023-03-01T07:31:34;101736.00;;;9.80
9119;BMP180;4594;50.994;7.126;2023-03-01T07:33:59;101731.00;;;10.20
9119;BMP180;4594;50.994;7.126;2023-03-01T07:36:25;101721.00;;;10.60
9119;BMP180;4594;50.994;7.126;2023-03-01T07:38:51;101735.00;;;11.00
9119;BMP180;4594;50.994;7.126;2023-03-01T07:41:20;101727.00;;;11.30
9119;BMP180;4594;50.994;7.126;2023-03-01T07:43:46;101722.00;;;11.40
9119;BMP180;4594;50.994;7.126;2023-03-01T07:46:12;101745.00;;;11.50
9119;BMP180;4594;50.994;7.126;2023-03-01T07:48:38;101739.00;;;11.70
9119;BMP180;4594;50.994;7.126;2023-03-01T07:51:06;101733.00;;;11.80
9119;BMP180;4594;50.994;7.126;2023-03-01T07:53:35;101750.00;;;12.00
9119;BMP180;4594;50.994;7.126;2023-03-01T07:56:13;101731.00;;;12.20
9119;BMP180;4594;50.994;7.126;2023-03-01T07:58:42;101739.00;;;12.50
9119;BMP180;4594;50.994;7.126;2023-03-01T08:01:15;101714.00;;;12.80
9119;BMP180;4594;50.994;7.126;2023-03-01T08:03:41;101722.00;;;13.20
9119;BMP180;4594;50.994;7.126;2023-03-01T08:06:10;101726.00;;;13.60
9119;BMP180;4594;50.994;7.126;2023-03-01T08:08:36;101716.00;;;14.00
9119;BMP180;4594;50.994;7.126;2023-03-01T08:11:05;101734.00;;;14.50
9119;BMP180;4594;50.994;7.126;2023-03-01T08:13:33;101725.00;;;14.90
9119;BMP180;4594;50.994;7.126;2023-03-01T08:16:04;101720.00;;;15.50
9119;BMP180;4594;50.994;7.126;2023-03-01T08:18:30;101713.00;;;16.00
9119;BMP180;4594;50.994;7.126;2023-03-01T08:21:00;101727.00;;;16.70
9119;BMP180;4594;50.994;7.126;2023-03-01T08:23:26;101725.00;;;17.30
9119;BMP180;4594;50.994;7.126;2023-03-01T08:25:51;101729.00;;;17.90
9119;BMP180;4594;50.994;7.126;2023-03-01T08:28:18;101729.00;;;18.50
9119;BMP180;4594;50.994;7.126;2023-03-01T08:30:44;101734.00;;;19.00
9119;BMP180;4594;50.994;7.126;2023-03-01T08:33:09;101733.00;;;19.50
9119;BMP180;4594;50.994;7.126;2023-03-01T08:35:35;101732.00;;;19.90
9119;BMP180;4594;50.994;7.126;2023-03-01T08:38:00;101748.00;;;20.10
9119;BMP180;4594;50.994;7.126;2023-03-01T08:40:26;101728.00;;;20.40
9119;BMP180;4594;50.994;7.126;2023-03-01T08:42:52;101728.00;;;20.70
9119;BMP180;4594;50.994;7.126;2023-03-01T08:45:18;101732.00;;;21.10
9119;BMP180;4594;50.994;7.126;2023-03-01T08:47:44;101732.00;;;21.50
9119;BMP180;4594;50.994;7.126;2023-03-01T08:50:10;101740.00;;;21.90
9119;BMP180;4594;50.994;7.126;2023-03-01T08:52:36;101732.00;;;22.40
9119;BMP180;4594;50.994;7.126;2023-03-01T08:55:02;101747.00;;;23.00
9119;BMP180;4594;50.994;7.126;2023-03-01T08:57:28;101738.00;;;23.50
9119;BMP180;4594;50.994;7.126;2023-03-01T08:59:53;101739.00;;;23.80
9119;BMP180;4594;50.994;7.126;2023-03-01T09:02:21;101746.00;;;24.20
9119;BMP180;4594;50.994;7.126;2023-03-01T09:04:47;101739.00;;;24.40
9119;BMP180;4594;50.994;7.126;2023-03-01T09:07:13;101741.00;;;24.50
9119;BMP180;4594;50.994;7.126;2023-03-01T09:09:38;101724.00;;;24.70
9119;BMP180;4594;50.994;7.126;2023-03-01T09:12:05;101735.00;;;24.80
9119;BMP180;4594;50.994;7.126;2023-03-01T09:14:31;101746.00;;;24.80
9119;BMP180;4594;50.994;7.126;2023-03-01T09:16:56;101734.00;;;24.90
9119;BMP180;4594;50.994;7.126;2023-03-01T09:19:22;101728.00;;;24.90
9119;BMP180;4594;50.994;7.126;2023-03-01T09:21:48;101737.00;;;25.10
9119;BMP180;4594;50.994;7.126;2023-03-01T09:24:23;101727.00;;;25.20
9119;BMP180;4594;50.994;7.126;2023-03-01T09:26:50;101731.00;;;25.30
9119;BMP180;4594;50.994;7.126;2023-03-01T09:29:18;101730.00;;;25.50
9119;BMP180;4594;50.994;7.126;2023-03-01T09:31:43;101731.00;;;25.60
9119;BMP180;4594;50.994;7.126;2023-03-01T09:34:09;101714.00;;;25.80
9119;BMP180;4594;50.994;7.126;2023-03-01T09:36:36;101713.00;;;26.00
9119;BMP180;4594;50.994;7.126;2023-03-01T09:39:03;101713.00;;;26.20
9119;BMP180;4594;50.994;7.126;2023-03-01T09:44:38;101721.00;;;27.00
9119;BMP180;4594;50.994;7.126;2023-03-01T09:47:18;101722.00;;;27.40
9119;BMP180;4594;50.994;7.126;2023-03-01T09:50:09;101717.00;;;27.90
9119;BMP180;4594;50.994;7.126;2023-03-01T09:53:07;101715.00;;;28.30
9119;BMP180;4594;50.994;7.126;2023-03-01T09:55:59;101714.00;;;28.60
9119;BMP180;4594;50.994;7.126;2023-03-01T09:58:39;101709.00;;;28.90
9119;BMP180;4594;50.994;7.126;2023-03-01T10:06:30;101707.00;;;29.70
9119;BMP180;4594;50.994;7.126;2023-03-01T10:09:09;101717.00;;;29.70
9119;BMP180;4594;50.994;7.126;2023-03-01T10:11:46;101707.00;;;29.80
9119;BMP180;4594;50.994;7.126;2023-03-01T10:14:40;101715.00;;;30.00
9119;BMP180;4594;50.994;7.126;2023-03-01T10:17:49;101699.00;;;30.30
9119;BMP180;4594;50.994;7.126;2023-03-01T10:20:25;101700.00;;;30.50
9119;BMP180;4594;50.994;7.126;2023-03-01T10:22:52;101709.00;;;30.70
9119;BMP180;4594;50.994;7.126;2023-03-01T10:29:12;101683.00;;;31.10
9119;BMP180;4594;50.994;7.126;2023-03-01T10:31:47;101681.00;;;31.00
9119;BMP180;4594;50.994;7.126;2023-03-01T10:34:26;101679.00;;;30.90
9119;BMP180;4594;50.994;7.126;2023-03-01T10:36:57;101686.00;;;30.70
9119;BMP180;4594;50.994;7.126;2023-03-01T10:39:26;101681.00;;;30.50
9119;BMP180;4594;50.994;7.126;2023-03-01T10:42:00;101675.00;;;30.20
9119;BMP180;4594;50.994;7.126;2023-03-01T10:44:46;101677.00;;;30.00
9119;BMP180;4594;50.994;7.126;2023-03-01T10:47:26;101671.00;;;29.80
9119;BMP180;4594;50.994;7.126;2023-03-01T10:50:05;101668.00;;;29.60
9119;BMP180;4594;50.994;7.126;2023-03-01T10:52:35;101666.00;;;29.20
9119;BMP180;4594;50.994;7.126;2023-03-01T10:55:30;101664.00;;;28.50
9119;BMP180;4594;50.994;7.126;2023-03-01T10:58:30;101661.00;;;27.30
9119;BMP180;4594;50.994;7.126;2023-03-01T11:01:06;101657.00;;;26.40
9119;BMP180;4594;50.994;7.126;2023-03-01T11:04:12;101651.00;;;25.20
9119;BMP180;4594;50.994;7.126;2023-03-01T11:06:43;101641.00;;;24.30
9119;BMP180;4594;50.994;7.126;2023-03-01T11:09:23;101639.00;;;23.40
9119;BMP180;4594;50.994;7.126;2023-03-01T11:11:59;101636.00;;;22.70
9119;BMP180;4594;50.994;7.126;2023-03-01T11:14:31;101616.00;;;21.90
9119;BMP180;4594;50.994;7.126;2023-03-01T11:17:29;101622.00;;;21.10
9119;BMP180;4594;50.994;7.126;2023-03-01T11:22:57;101619.00;;;19.80
9119;BMP180;4594;50.994;7.126;2023-03-01T11:25:37;101620.00;;;19.30
9119;BMP180;4594;50.994;7.126;2023-03-01T11:28:06;101619.00;;;18.90
9119;BMP180;4594;50.994;7.126;2023-03-01T11:30:43;101609.00;;;18.60
9119;BMP180;4594;50.994;7.126;2023-03-01T11:38:35;101579.00;;;17.30
9119;BMP180;4594;50.994;7.126;2023-03-01T11:41:10;101590.00;;;17.10
9119;BMP180;4594;50.994;7.126;2023-03-01T11:47:24;101572.00;;;16.20
9119;BMP180;4594;50.994;7.126;2023-03-01T11:50:19;101570.00;;;15.90
9119;BMP180;4594;50.994;7.126;2023-03-01T11:56:22;101569.00;;;15.50
9119;BMP180;4594;50.994;7.126;2023-03-01T11:59:20;101554.00;;;15.30
9119;BMP180;4594;50.994;7.126;2023-03-01T12:03:08;101560.00;;;15.20
9119;BMP180;4594;50.994;7.126;2023-03-01T12:05:30;101528.00;;;14.90
9119;BMP180;4594;50.994;7.126;2023-03-01T12:08:31;101511.00;;;14.80
9119;BMP180;4594;50.994;7.126;2023-03-01T12:11:27;101535.00;;;14.70
9119;BMP180;4594;50.994;7.126;2023-03-01T12:23:07;101530.00;;;14.20
9119;BMP180;4594;50.994;7.126;2023-03-01T12:49:13;101494.00;;;13.60
9119;BMP180;4594;50.994;7.126;2023-03-01T12:51:51;101490.00;;;13.60
9119;BMP180;4594;50.994;7.126;2023-03-01T12:54:27;101484.00;;;13.60
9119;BMP180;4594;50.994;7.126;2023-03-01T12:56:56;101479.00;;;13.60
9119;BMP180;4594;50.994;7.126;2023-03-01T12:59:38;101473.00;;;13.60
9119;BMP180;4594;50.994;7.126;2023-03-01T13:02:26;101479.00;;;13.60
9119;BMP180;4594;50.994;7.126;2023-03-01T13:05:24;101472.00;;;13.60
9119;BMP180;4594;50.994;7.126;2023-03-01T13:10:49;101458.00;;;13.60
9119;BMP180;4594;50.994;7.126;2023-03-01T13:13:25;101456.00;;;13.60
9119;BMP180;4594;50.994;7.126;2023-03-01T13:15:52;101447.00;;;13.60
9119;BMP180;4594;50.994;7.126;2023-03-01T13:20:49;101465.00;;;13.70
9119;BMP180;4594;50.994;7.126;2023-03-01T13:28:58;101461.00;;;13.70
9119;BMP180;4594;50.994;7.126;2023-03-01T13:33:53;101460.00;;;13.70
9119;BMP180;4594;50.994;7.126;2023-03-01T13:44:30;101432.00;;;13.50
9119;BMP180;4594;50.994;7.126;2023-03-01T13:47:12;101429.00;;;13.60
9119;BMP180;4594;50.994;7.126;2023-03-01T13:49:43;101437.00;;;13.50
9119;BMP180;4594;50.994;7.126;2023-03-01T13:52:59;101434.00;;;13.50
9119;BMP180;4594;50.994;7.126;2023-03-01T13:55:42;101425.00;;;13.40
9119;BMP180;4594;50.994;7.126;2023-03-01T13:58:26;101420.00;;;13.40
9119;BMP180;4594;50.994;7.126;2023-03-01T14:03:24;101418.00;;;13.50
9119;BMP180;4594;50.994;7.126;2023-03-01T14:06:09;101407.00;;;13.50
9119;BMP180;4594;50.994;7.126;2023-03-01T14:08:37;101415.00;;;13.50
9119;BMP180;4594;50.994;7.126;2023-03-01T14:14:34;101410.00;;;13.50
9119;BMP180;4594;50.994;7.126;2023-03-01T14:20:12;101407.00;;;13.50
9119;BMP180;4594;50.994;7.126;2023-03-01T14:22:42;101404.00;;;13.50
9119;BMP180;4594;50.994;7.126;2023-03-01T14:25:24;101393.00;;;13.50
9119;BMP180;4594;50.994;7.126;2023-03-01T14:28:17;101406.00;;;13.50
9119;BMP180;4594;50.994;7.126;2023-03-01T14:30:59;101391.00;;;13.50
9119;BMP180;4594;50.994;7.126;2023-03-01T14:33:32;101387.00;;;13.50
9119;BMP180;4594;50.994;7.126;2023-03-01T14:36:13;101382.00;;;13.50
9119;BMP180;4594;50.994;7.126;2023-03-01T14:38:45;101395.00;;;13.50
9119;BMP180;4594;50.994;7.126;2023-03-01T14:41:22;101382.00;;;13.40
9119;BMP180;4594;50.994;7.126;2023-03-01T14:43:55;101372.00;;;13.40
9119;BMP180;4594;50.994;7.126;2023-03-01T14:46:37;101382.00;;;13.40
9119;BMP180;4594;50.994;7.126;2023-03-01T14:49:32;101364.00;;;13.30
9119;BMP180;4594;50.994;7.126;2023-03-01T14:52:18;101369.00;;;13.30
9119;BMP180;4594;50.994;7.126;2023-03-01T14:54:50;101351.00;;;13.30
9119;BMP180;4594;50.994;7.126;2023-03-01T14:57:24;101362.00;;;13.30
9119;BMP180;4594;50.994;7.126;2023-03-01T14:59:54;101359.00;;;13.20
9119;BMP180;4594;50.994;7.126;2023-03-01T15:02:26;101366.00;;;13.20
9119;BMP180;4594;50.994;7.126;2023-03-01T15:04:56;101352.00;;;13.10
9119;BMP180;4594;50.994;7.126;2023-03-01T15:07:30;101359.00;;;13.10
9119;BMP180;4594;50.994;7.126;2023-03-01T15:09:58;101361.00;;;13.10
9119;BMP180;4594;50.994;7.126;2023-03-01T15:14:53;101351.00;;;13.00
9119;BMP180;4594;50.994;7.126;2023-03-01T15:17:37;101345.00;;;13.00
9119;BMP180;4594;50.994;7.126;2023-03-01T15:20:18;101344.00;;;12.90
9119;BMP180;4594;50.994;7.126;2023-03-01T15:22:46;101346.00;;;12.90
9119;BMP180;4594;50.994;7.126;2023-03-01T15:25:22;101342.00;;;12.90
9119;BMP180;4594;50.994;7.126;2023-03-01T15:27:52;101341.00;;;12.80
9119;BMP180;4594;50.994;7.126;2023-03-01T15:30:34;101338.00;;;12.80
9119;BMP180;4594;50.994;7.126;2023-03-01T15:33:27;101343.00;;;12.80
9119;BMP180;4594;50.994;7.126;2023-03-01T15:36:00;101336.00;;;12.70
9119;BMP180;4594;50.994;7.126;2023-03-01T15:38:51;101326.00;;;12.70
9119;BMP180;4594;50.994;7.126;2023-03-01T15:41:47;101325.00;;;12.60
9119;BMP180;4594;50.994;7.126;2023-03-01T15:44:33;101325.00;;;12.60
9119;BMP180;4594;50.994;7.126;2023-03-01T15:46:59;101320.00;;;12.60
9119;BMP180;4594;50.994;7.126;2023-03-01T15:49:41;101311.00;;;12.60
9119;BMP180;4594;50.994;7.126;2023-03-01T15:52:22;101317.00;;;12.50
9119;BMP180;4594;50.994;7.126;2023-03-01T15:54:56;101312.00;;;12.50
9119;BMP180;4594;50.994;7.126;2023-03-01T15:57:22;101316.00;;;12.50
9119;BMP180;4594;50.994;7.126;2023-03-01T15:59:48;101316.00;;;12.50
9119;BMP180;4594;50.994;7.126;2023-03-01T16:02:14;101303.00;;;12.40
9119;BMP180;4594;50.994;7.126;2023-03-01T16:04:40;101323.00;;;12.40
9119;BMP180;4594;50.994;7.126;2023-03-01T16:07:06;101318.00;;;12.40
9119;BMP180;4594;50.994;7.126;2023-03-01T16:09:33;101315.00;;;12.40
9119;BMP180;4594;50.994;7.126;2023-03-01T16:11:59;101307.00;;;12.30
9119;BMP180;4594;50.994;7.126;2023-03-01T16:14:24;101306.00;;;12.30
9119;BMP180;4594;50.994;7.126;2023-03-01T16:16:50;101295.00;;;12.30
9119;BMP180;4594;50.994;7.126;2023-03-01T16:19:16;101308.00;;;12.30
9119;BMP180;4594;50.994;7.126;2023-03-01T16:21:42;101300.00;;;12.20
9119;BMP180;4594;50.994;7.126;2023-03-01T16:24:09;101309.00;;;12.20
9119;BMP180;4594;50.994;7.126;2023-03-01T16:26:36;101301.00;;;12.20
9119;BMP180;4594;50.994;7.126;2023-03-01T16:29:03;101300.00;;;12.10
9119;BMP180;4594;50.994;7.126;2023-03-01T16:31:29;101299.00;;;12.10
9119;BMP180;4594;50.994;7.126;2023-03-01T16:33:56;101305.00;;;12.00
9119;BMP180;4594;50.994;7.126;2023-03-01T16:36:24;101311.00;;;12.00